createdAt,value
2023-05-15T00:03:34.661Z,11.62
2023-05-15T00:07:39.194Z,11.64
2023-05-15T00:11:43.555Z,11.65
2023-05-15T00:15:46.692Z,11.68
2023-05-15T00:19:49.718Z,11.71
2023-05-15T00:23:54.062Z,11.74
2023-05-15T00:27:58.570Z,11.74
2023-05-15T00:32:01.625Z,11.70
2023-05-15T00:36:04.655Z,11.73
2023-05-15T00:40:10.930Z,11.73
2023-05-15T00:44:19.163Z,11.74
2023-05-15T00:48:23.577Z,11.75
2023-05-15T00:52:27.753Z,11.77
2023-05-15T00:56:31.891Z,11.80
2023-05-15T01:00:37.484Z,11.78
2023-05-15T01:04:40.654Z,11.78
2023-05-15T01:08:46.878Z,11.74
2023-05-15T01:12:54.334Z,11.71
2023-05-15T01:16:58.903Z,11.70
2023-05-15T01:21:21.543Z,11.69
2023-05-15T01:26:16.644Z,11.69
2023-05-15T01:30:25.299Z,11.67
2023-05-15T01:34:35.270Z,11.67
2023-05-15T01:38:40.559Z,11.70
2023-05-15T01:42:50.338Z,11.71
2023-05-15T01:46:58.963Z,11.71
2023-05-15T01:51:07.665Z,11.70
2023-05-15T01:55:13.194Z,11.69
2023-05-15T01:59:17.702Z,11.68
2023-05-15T02:03:22.511Z,11.67
2023-05-15T02:07:27.500Z,11.68
2023-05-15T02:11:30.768Z,11.67
2023-05-15T02:15:34.160Z,11.66
2023-05-15T02:19:38.614Z,11.64
2023-05-15T02:23:41.709Z,11.62
2023-05-15T02:27:52.730Z,11.60
2023-05-15T02:32:05.081Z,11.59
2023-05-15T02:36:12.449Z,11.60
2023-05-15T02:40:17.362Z,11.63
2023-05-15T02:44:21.826Z,11.64
2023-05-15T02:48:25.797Z,11.65
2023-05-15T02:52:30.203Z,11.65
2023-05-15T02:56:33.645Z,11.63
2023-05-15T03:00:36.744Z,11.63
2023-05-15T03:04:40.002Z,11.63
2023-05-15T03:08:44.476Z,11.63
2023-05-15T03:12:47.653Z,11.64
2023-05-15T03:16:51.044Z,11.61
2023-05-15T03:20:54.988Z,11.63
2023-05-15T03:25:01.827Z,11.63
2023-05-15T03:29:05.021Z,11.66
2023-05-15T03:33:08.539Z,11.68
2023-05-15T03:37:11.632Z,11.67
2023-05-15T03:41:16.001Z,11.66
2023-05-15T03:45:19.201Z,11.65
2023-05-15T03:49:24.159Z,11.65
2023-05-15T03:53:27.315Z,11.65
2023-05-15T03:57:33.018Z,11.64
2023-05-15T04:01:46.674Z,11.65
2023-05-15T04:05:58.634Z,11.66
2023-05-15T04:10:02.001Z,11.67
2023-05-15T04:14:06.503Z,11.67
2023-05-15T04:18:09.565Z,11.66
2023-05-15T04:22:12.716Z,11.64
2023-05-15T04:26:15.820Z,11.66
2023-05-15T04:30:20.735Z,11.69
2023-05-15T04:34:23.932Z,11.74
2023-05-15T04:38:26.932Z,11.79
2023-05-15T04:42:30.041Z,11.80
2023-05-15T04:46:37.447Z,11.78
2023-05-15T04:50:40.626Z,11.79
2023-05-15T04:54:43.660Z,11.79
2023-05-15T04:58:46.692Z,11.79
2023-05-15T05:02:51.585Z,11.75
2023-05-15T05:06:54.665Z,11.73
2023-05-15T05:10:58.371Z,11.71
2023-05-15T05:15:01.535Z,11.70
2023-05-15T05:19:07.180Z,11.70
2023-05-15T05:23:10.774Z,11.70
2023-05-15T05:27:13.843Z,11.65
2023-05-15T05:31:16.924Z,11.63
2023-05-15T05:35:21.891Z,11.64
2023-05-15T05:39:25.078Z,11.65
2023-05-15T05:43:28.481Z,11.63
2023-05-15T05:47:31.472Z,11.62
2023-05-15T05:51:36.992Z,11.58
2023-05-15T05:55:40.030Z,11.49
2023-05-15T05:59:43.171Z,11.47
2023-05-15T06:03:46.815Z,11.49
2023-05-15T06:07:51.513Z,11.52
2023-05-15T06:11:54.510Z,11.54
2023-05-15T06:15:57.706Z,11.55
2023-05-15T06:20:00.888Z,11.59
2023-05-15T06:24:05.474Z,11.64
2023-05-15T06:28:08.471Z,11.71
2023-05-15T06:32:11.482Z,11.78
2023-05-15T06:36:17.049Z,11.82
2023-05-15T06:40:22.355Z,11.83
2023-05-15T06:44:25.795Z,11.89
2023-05-15T06:48:28.939Z,11.86
2023-05-15T06:52:31.975Z,11.87
2023-05-15T06:56:36.450Z,11.91
2023-05-15T07:00:39.500Z,11.93
2023-05-15T07:04:42.571Z,11.95
2023-05-15T07:08:45.773Z,11.96
2023-05-15T07:12:50.152Z,12.01
2023-05-15T07:16:53.327Z,12.06
2023-05-15T07:20:56.452Z,12.09
2023-05-15T07:24:59.451Z,12.02
2023-05-15T07:29:04.251Z,11.98
2023-05-15T07:33:07.547Z,11.98
2023-05-15T07:37:10.986Z,12.01
2023-05-15T07:41:14.106Z,12.02
2023-05-15T07:45:18.667Z,12.02
2023-05-15T07:49:21.678Z,12.06
2023-05-15T07:53:24.660Z,12.16
2023-05-15T07:57:27.780Z,12.27
2023-05-15T08:01:32.894Z,12.33
2023-05-15T08:05:36.265Z,12.38
2023-05-15T08:09:39.310Z,12.50
2023-05-15T08:13:42.306Z,12.70
2023-05-15T08:17:46.898Z,12.89
2023-05-15T08:21:49.903Z,13.11
2023-05-15T08:25:52.992Z,13.23
2023-05-15T08:29:56.000Z,13.37
2023-05-15T08:34:00.421Z,13.40
2023-05-15T08:38:04.000Z,13.43
2023-05-15T08:42:11.648Z,13.52
2023-05-15T08:46:14.957Z,13.68
2023-05-15T08:50:20.492Z,13.87
2023-05-15T08:54:23.926Z,14.18
2023-05-15T08:58:28.763Z,14.40
2023-05-15T09:02:31.883Z,14.62
2023-05-15T09:06:37.099Z,14.73
2023-05-15T09:10:40.588Z,14.92
2023-05-15T09:14:43.657Z,14.89
2023-05-15T09:18:47.207Z,14.81
2023-05-15T09:22:51.655Z,14.75
2023-05-15T09:27:05.217Z,14.59
2023-05-15T09:31:09.356Z,14.41
2023-05-15T09:35:31.121Z,14.29
2023-05-15T09:39:42.065Z,14.23
2023-05-15T09:43:45.030Z,14.36
2023-05-15T09:47:48.309Z,14.56
2023-05-15T09:51:51.808Z,14.64
2023-05-15T09:55:56.869Z,14.65
2023-05-15T10:00:10.352Z,14.68
2023-05-15T10:04:15.367Z,14.87
2023-05-15T10:08:28.284Z,15.08
2023-05-15T10:12:33.127Z,15.33
2023-05-15T10:16:37.509Z,15.52
2023-05-15T10:20:40.932Z,15.53
2023-05-15T10:24:46.063Z,15.59
2023-05-15T10:28:52.093Z,15.70
2023-05-15T10:32:56.997Z,15.77
2023-05-15T10:37:01.540Z,15.76
2023-05-15T10:41:16.401Z,15.61
2023-05-15T10:45:21.465Z,15.53
2023-05-15T10:49:24.736Z,15.53
2023-05-15T10:53:27.835Z,15.69
2023-05-15T10:57:31.281Z,15.83
2023-05-15T11:01:37.205Z,15.83
2023-05-15T11:06:10.947Z,15.87
2023-05-15T11:10:37.866Z,16.05
2023-05-15T11:14:42.125Z,16.04
2023-05-15T11:18:47.684Z,16.11
2023-05-15T11:23:00.336Z,16.20
2023-05-15T11:27:04.790Z,16.28
2023-05-15T11:31:08.038Z,16.32
2023-05-15T11:35:13.509Z,16.38
2023-05-15T11:39:17.268Z,16.54
2023-05-15T11:43:22.559Z,16.72
2023-05-15T11:47:26.684Z,16.71
2023-05-15T11:51:31.718Z,16.65
2023-05-15T11:55:37.373Z,16.76
2023-05-15T11:59:40.591Z,16.95
2023-05-15T12:03:44.282Z,17.12
2023-05-15T12:07:48.972Z,17.16
2023-05-15T12:11:53.150Z,17.09
2023-05-15T12:15:56.955Z,17.14
2023-05-15T12:20:01.361Z,17.09
2023-05-15T12:24:08.101Z,17.04
2023-05-15T12:28:13.302Z,17.06
2023-05-15T12:32:16.644Z,17.04
2023-05-15T12:36:22.070Z,17.01
2023-05-15T12:40:26.913Z,17.01
2023-05-15T12:44:30.266Z,17.08
2023-05-15T12:48:33.899Z,17.23
2023-05-15T12:52:36.907Z,17.35
2023-05-15T12:56:41.727Z,17.48
2023-05-15T13:00:46.406Z,17.51
2023-05-15T13:04:49.630Z,17.44
2023-05-15T13:08:52.853Z,17.39
2023-05-15T13:12:59.007Z,17.44
2023-05-15T13:17:03.934Z,17.46
2023-05-15T13:21:07.038Z,17.37
2023-05-15T13:25:10.751Z,17.26
2023-05-15T13:29:15.312Z,17.27
2023-05-15T13:33:18.417Z,17.31
2023-05-15T13:37:21.417Z,17.31
2023-05-15T13:41:24.488Z,17.26
2023-05-15T13:45:28.960Z,17.23
2023-05-15T13:49:32.091Z,17.25
2023-05-15T13:53:35.170Z,17.28
2023-05-15T13:57:38.570Z,17.25
2023-05-15T14:01:43.369Z,17.16
2023-05-15T14:05:46.504Z,17.15
2023-05-15T14:09:49.713Z,17.11
2023-05-15T14:13:52.714Z,17.17
2023-05-15T14:17:57.131Z,17.31
2023-05-15T14:22:00.152Z,17.42
2023-05-15T14:26:03.706Z,17.58
2023-05-15T14:30:08.097Z,17.67
2023-05-15T14:34:14.124Z,17.68
2023-05-15T14:38:17.187Z,17.62
2023-05-15T14:42:21.151Z,17.64
2023-05-15T14:46:24.318Z,17.64
2023-05-15T14:50:29.037Z,17.52
2023-05-15T14:54:33.127Z,17.53
2023-05-15T14:58:36.403Z,17.55
2023-05-15T15:02:39.440Z,17.50
2023-05-15T15:06:44.301Z,17.46
2023-05-15T15:10:48.953Z,17.36
2023-05-15T15:14:55.185Z,17.23
2023-05-15T15:19:03.449Z,17.16
2023-05-15T15:23:07.959Z,17.04
2023-05-15T15:27:11.616Z,17.00
2023-05-15T15:31:15.499Z,17.09
2023-05-15T15:35:18.562Z,17.10
2023-05-15T15:39:23.433Z,17.10
2023-05-15T15:48:20.819Z,17.07
2023-05-15T15:52:23.907Z,17.07
2023-05-15T15:56:28.276Z,17.09
2023-05-15T16:00:31.454Z,17.05
2023-05-15T16:04:34.493Z,16.99
2023-05-15T16:08:37.574Z,16.96
2023-05-15T16:12:48.788Z,16.94
2023-05-15T16:16:58.604Z,16.91
2023-05-15T16:21:02.508Z,16.90
2023-05-15T16:25:07.184Z,16.88
2023-05-15T16:29:11.979Z,16.87
2023-05-15T16:33:15.021Z,16.83
2023-05-15T16:37:19.497Z,16.76
2023-05-15T16:41:26.399Z,16.73
2023-05-15T16:45:30.862Z,16.73
2023-05-15T16:49:33.854Z,16.73
2023-05-15T16:53:36.914Z,16.67
2023-05-15T16:57:39.976Z,16.61
2023-05-15T17:01:44.534Z,16.59
2023-05-15T17:05:47.626Z,16.57
2023-05-15T17:09:50.594Z,16.55
2023-05-15T17:13:53.581Z,16.52
2023-05-15T17:17:57.958Z,16.48
2023-05-15T17:22:00.953Z,16.44
2023-05-15T17:26:04.327Z,16.41
2023-05-15T17:30:08.937Z,16.35
2023-05-15T17:34:13.341Z,16.30
2023-05-15T17:38:16.422Z,16.27
2023-05-15T17:42:22.456Z,16.27
2023-05-15T17:46:26.668Z,16.25
2023-05-15T17:50:31.709Z,16.23
2023-05-15T17:54:35.259Z,16.16
2023-05-15T17:58:38.890Z,16.10
2023-05-15T18:02:42.557Z,16.05
2023-05-15T18:06:50.131Z,15.99
2023-05-15T18:10:53.317Z,15.94
2023-05-15T18:14:56.311Z,15.87
2023-05-15T18:18:59.522Z,15.82
2023-05-15T18:23:03.930Z,15.79
2023-05-15T18:27:07.169Z,15.75
2023-05-15T18:31:10.410Z,15.69
2023-05-15T18:35:13.686Z,15.60
2023-05-15T18:39:18.066Z,15.54
2023-05-15T18:43:21.517Z,15.47
2023-05-15T18:47:24.574Z,15.38
2023-05-15T18:51:27.831Z,15.25
2023-05-15T18:55:32.352Z,15.22
2023-05-15T18:59:35.625Z,15.18
2023-05-15T19:03:38.828Z,15.13
2023-05-15T19:07:42.336Z,15.10
2023-05-15T19:11:47.410Z,15.07
2023-05-15T19:15:53.872Z,15.04
2023-05-15T19:19:56.844Z,15.00
2023-05-15T19:23:59.902Z,14.96
2023-05-15T19:28:04.274Z,14.88
2023-05-15T19:32:08.540Z,14.82
2023-05-15T19:36:13.217Z,14.78
2023-05-15T19:40:16.636Z,14.73
2023-05-15T19:44:21.131Z,14.69
2023-05-15T19:48:24.199Z,14.62
2023-05-15T19:52:27.213Z,14.56
2023-05-15T19:56:30.334Z,14.52
2023-05-15T20:00:34.904Z,14.46
2023-05-15T20:04:38.743Z,14.40
2023-05-15T20:08:42.079Z,14.35
2023-05-15T20:12:46.119Z,14.31
2023-05-15T20:16:54.030Z,14.25
2023-05-15T20:20:58.484Z,14.23
2023-05-15T20:25:01.474Z,14.17
2023-05-15T20:29:04.559Z,14.14
2023-05-15T20:33:09.002Z,14.12
2023-05-15T20:37:12.860Z,14.07
2023-05-15T20:41:16.761Z,14.02
2023-05-15T20:45:20.229Z,13.96
2023-05-15T20:49:24.633Z,13.91
2023-05-15T20:53:28.582Z,13.89
2023-05-15T20:57:31.685Z,13.86
2023-05-15T21:01:34.818Z,13.80
2023-05-15T21:05:39.594Z,13.76
2023-05-15T21:09:42.639Z,13.72
2023-05-15T21:13:45.720Z,13.71
2023-05-15T21:17:48.781Z,13.69
2023-05-15T21:21:53.217Z,13.66
2023-05-15T21:25:56.358Z,13.63
2023-05-15T21:29:59.404Z,13.62
2023-05-15T21:34:02.464Z,13.58
2023-05-15T21:38:07.609Z,13.56
2023-05-15T21:42:11.032Z,13.52
2023-05-15T21:46:14.327Z,13.48
2023-05-15T21:50:17.542Z,13.44
2023-05-15T21:54:21.893Z,13.37
2023-05-15T21:58:24.965Z,13.34
2023-05-15T22:02:28.013Z,13.29
2023-05-15T22:06:31.781Z,13.26
2023-05-15T22:10:36.186Z,13.23
2023-05-15T22:14:46.937Z,13.18
2023-05-15T22:19:00.393Z,13.18
2023-05-15T22:23:03.483Z,13.17
2023-05-15T22:27:08.264Z,13.17
2023-05-15T22:31:11.335Z,13.14
2023-05-15T22:35:14.457Z,13.08
2023-05-15T22:39:17.824Z,13.04
2023-05-15T22:43:22.622Z,12.99
2023-05-15T22:47:26.061Z,12.96
2023-05-15T22:51:30.285Z,12.97
2023-05-15T22:55:33.768Z,12.97
2023-05-15T22:59:38.304Z,12.97
2023-05-15T23:03:41.479Z,13.00
2023-05-15T23:07:45.112Z,12.99
2023-05-15T23:11:48.136Z,12.98
2023-05-15T23:15:52.571Z,12.96
2023-05-15T23:19:55.723Z,12.95
2023-05-15T23:23:58.793Z,12.96
2023-05-15T23:28:01.842Z,12.99
2023-05-15T23:32:07.890Z,13.00
2023-05-15T23:36:10.980Z,12.98
2023-05-15T23:40:15.372Z,12.97
2023-05-15T23:44:19.631Z,12.97
2023-05-15T23:48:24.088Z,12.95
2023-05-15T23:52:27.303Z,12.93
2023-05-15T23:56:30.361Z,12.93
